Time;durP1;ratioP1;P1;durP2;ratioP2;P2;SDS_P1;SDS_P2;PMS_P1;PMS_P2;Temp;Humidity;BMP_temperature;BMP_pressure;BME280_temperature;BME280_humidity;BME280_pressure;Samples;Min_cycle;Max_cycle;Signal;HPM_P1;HPM_P2
2023/06/18 00:01:55;;;;;;;8.53;7.30;;;;;;;;;;6141530;23;20419;-91
2023/06/18 00:04:21;;;;;;;7.30;6.60;;;;;;;;;;6139570;23;20856;-91
2023/06/18 00:06:47;;;;;;;8.00;6.67;;;;;;;;;;6141613;23;20388;-92
2023/06/18 00:09:13;;;;;;;8.90;7.23;;;;;;;;;;6141419;23;20376;-92
2023/06/18 00:11:39;;;;;;;8.37;6.50;;;;;;;;;;6142128;23;20381;-92
2023/06/18 00:14:05;;;;;;;8.50;6.90;;;;;;;;;;6140765;23;20387;-91
2023/06/18 00:16:31;;;;;;;7.67;6.37;;;;;;;;;;6141234;23;20392;-91
2023/06/18 00:18:57;;;;;;;6.20;5.60;;;;;;;;;;6140028;23;20407;-92
2023/06/18 00:21:23;;;;;;;7.80;6.80;;;;;;;;;;6142333;23;20756;-92
2023/06/18 00:23:50;;;;;;;8.13;6.50;;;;;;;;;;6140388;23;20403;-92
2023/06/18 00:26:16;;;;;;;14.43;5.73;;;;;;;;;;6142167;23;20380;-91
2023/06/18 00:28:42;;;;;;;7.10;6.30;;;;;;;;;;6141562;23;20380;-92
2023/06/18 00:31:11;;;;;;;10.43;7.07;;;;;;;;;;6143979;23;20399;-91
2023/06/18 00:33:37;;;;;;;6.97;6.23;;;;;;;;;;6164941;23;20379;-92
2023/06/18 00:36:04;;;;;;;7.00;6.00;;;;;;;;;;6165752;23;20372;-92
2023/06/18 00:38:32;;;;;;;6.03;5.40;;;;;;;;;;6164244;23;20376;-92
2023/06/18 00:40:58;;;;;;;8.67;7.17;;;;;;;;;;6165087;23;20420;-90
2023/06/18 00:43:27;;;;;;;7.07;6.00;;;;;;;;;;6164109;23;20420;-92
2023/06/18 00:45:53;;;;;;;7.70;6.10;;;;;;;;;;6165813;23;20388;-93
2023/06/18 00:48:21;;;;;;;6.60;5.80;;;;;;;;;;6164288;23;20376;-93
2023/06/18 00:50:47;;;;;;;9.10;5.37;;;;;;;;;;6165228;23;20447;-92
2023/06/18 00:53:13;;;;;;;8.40;6.13;;;;;;;;;;6164518;23;20384;-92
2023/06/18 00:55:41;;;;;;;9.20;6.17;;;;;;;;;;6165401;23;20394;-93
2023/06/18 00:58:07;;;;;;;7.90;6.57;;;;;;;;;;6166833;23;20908;-92
2023/06/18 01:00:34;;;;;;;9.43;6.60;;;;;;;;;;6167070;23;20382;-91
2023/06/18 01:03:02;;;;;;;6.40;5.77;;;;;;;;;;6165764;23;20808;-93
2023/06/18 01:05:31;;;;;;;6.90;6.10;;;;;;;;;;6148721;23;20380;-92
2023/06/18 01:07:58;;;;;;;7.40;6.00;;;;;;;;;;6146085;23;20422;-92
2023/06/18 01:10:28;;;;;;;8.17;6.80;;;;;;;;;;6144038;23;20399;-91
2023/06/18 01:12:54;;;;;;;7.90;6.13;;;;;;;;;;6143107;23;20374;-92
2023/06/18 01:15:20;;;;;;;8.17;6.40;;;;;;;;;;6142608;23;20376;-93
2023/06/18 01:17:48;;;;;;;9.57;6.40;;;;;;;;;;6143798;23;20391;-94
2023/06/18 01:20:14;;;;;;;9.23;5.40;;;;;;;;;;6144097;23;20383;-93
2023/06/18 01:22:43;;;;;;;6.23;5.47;;;;;;;;;;6143501;23;20521;-93
2023/06/18 01:25:09;;;;;;;7.23;6.53;;;;;;;;;;6165989;23;20698;-91
2023/06/18 01:27:40;;;;;;;7.80;6.20;;;;;;;;;;6143046;23;20910;-91
2023/06/18 01:30:06;;;;;;;6.57;5.40;;;;;;;;;;6142646;23;21004;-91
2023/06/18 01:32:32;;;;;;;7.60;5.80;;;;;;;;;;6142635;23;20983;-91
2023/06/18 01:35:00;;;;;;;6.63;6.00;;;;;;;;;;6144045;23;20388;-92
2023/06/18 01:37:35;;;;;;;8.77;6.03;;;;;;;;;;6144942;23;20384;-91
2023/06/18 01:40:07;;;;;;;7.80;6.83;;;;;;;;;;6169267;23;20414;-91
2023/06/18 01:42:35;;;;;;;10.80;6.13;;;;;;;;;;6169820;23;20427;-92
2023/06/18 01:45:05;;;;;;;10.37;6.77;;;;;;;;;;6144824;23;20499;-92
2023/06/18 01:47:31;;;;;;;7.80;6.63;;;;;;;;;;6144871;23;20432;-92
2023/06/18 01:49:57;;;;;;;9.00;6.50;;;;;;;;;;6144739;23;20387;-93
2023/06/18 01:52:23;;;;;;;7.90;5.60;;;;;;;;;;6144906;23;20404;-91
2023/06/18 01:54:49;;;;;;;8.90;5.83;;;;;;;;;;6143419;23;20390;-91
2023/06/18 01:57:15;;;;;;;7.60;5.87;;;;;;;;;;6143700;23;20445;-91
2023/06/18 01:59:44;;;;;;;8.03;5.40;;;;;;;;;;6144705;23;20398;-92
2023/06/18 02:02:12;;;;;;;6.23;5.27;;;;;;;;;;6142880;23;20420;-92
2023/06/18 02:04:43;;;;;;;8.37;6.23;;;;;;;;;;6145080;23;20873;-91
2023/06/18 02:07:09;;;;;;;6.40;5.80;;;;;;;;;;6144988;23;20361;-92
2023/06/18 02:09:35;;;;;;;7.63;6.17;;;;;;;;;;6144136;23;20380;-92
2023/06/18 02:12:01;;;;;;;8.97;6.20;;;;;;;;;;6144428;23;20384;-90
2023/06/18 02:14:27;;;;;;;6.83;5.90;;;;;;;;;;6143232;23;20398;-92
2023/06/18 02:16:55;;;;;;;6.40;5.80;;;;;;;;;;6145715;23;20451;-92
2023/06/18 02:19:21;;;;;;;7.43;5.73;;;;;;;;;;6145305;23;21116;-92
2023/06/18 02:21:47;;;;;;;8.80;6.30;;;;;;;;;;6144090;23;20452;-92
2023/06/18 02:24:15;;;;;;;9.63;6.20;;;;;;;;;;6142161;23;20384;-93
2023/06/18 02:26:41;;;;;;;6.73;5.37;;;;;;;;;;6144370;23;20721;-92
2023/06/18 02:29:07;;;;;;;6.83;5.43;;;;;;;;;;6143884;23;20383;-92
2023/06/18 02:31:33;;;;;;;7.40;5.40;;;;;;;;;;6143306;23;20402;-91
2023/06/18 02:33:59;;;;;;;8.70;5.53;;;;;;;;;;6141167;23;20467;-93
2023/06/18 02:36:25;;;;;;;6.70;5.20;;;;;;;;;;6142984;23;20388;-92
2023/06/18 02:38:54;;;;;;;8.47;5.80;;;;;;;;;;6143138;23;20387;-92
2023/06/18 02:41:20;;;;;;;8.60;5.40;;;;;;;;;;6144882;23;20912;-93
2023/06/18 02:43:49;;;;;;;8.27;5.73;;;;;;;;;;6142708;23;20895;-91
2023/06/18 02:46:15;;;;;;;8.43;6.00;;;;;;;;;;6142442;23;20387;-91
2023/06/18 02:48:41;;;;;;;8.40;6.63;;;;;;;;;;6141408;23;20387;-91
2023/06/18 02:51:07;;;;;;;7.47;6.23;;;;;;;;;;6143669;23;20372;-92
2023/06/18 02:53:33;;;;;;;8.50;6.10;;;;;;;;;;6166352;23;20665;-92
2023/06/18 02:56:01;;;;;;;8.93;6.20;;;;;;;;;;6168208;23;20368;-92
2023/06/18 02:58:29;;;;;;;8.30;6.50;;;;;;;;;;6142997;23;20942;-91
2023/06/18 03:00:56;;;;;;;7.23;6.20;;;;;;;;;;6143659;23;20499;-92
2023/06/18 03:03:23;;;;;;;8.23;6.20;;;;;;;;;;6143008;23;20444;-92
2023/06/18 03:05:49;;;;;;;7.33;6.00;;;;;;;;;;6143831;23;20388;-91
2023/06/18 03:08:15;;;;;;;9.57;6.07;;;;;;;;;;6142794;23;20382;-91
2023/06/18 03:10:44;;;;;;;6.77;5.30;;;;;;;;;;6141818;23;20395;-91
2023/06/18 03:13:10;;;;;;;7.50;6.67;;;;;;;;;;6140425;23;20518;-90
2023/06/18 03:15:36;;;;;;;6.43;5.60;;;;;;;;;;6140635;23;20376;-90
2023/06/18 03:18:02;;;;;;;7.67;5.87;;;;;;;;;;6140499;23;20426;-90
2023/06/18 03:20:28;;;;;;;7.63;6.30;;;;;;;;;;6142566;23;20621;-91
2023/06/18 03:22:54;;;;;;;7.00;6.17;;;;;;;;;;6140651;23;21030;-91
2023/06/18 03:25:20;;;;;;;7.53;6.17;;;;;;;;;;6139472;23;20415;-91
2023/06/18 03:27:47;;;;;;;7.23;5.67;;;;;;;;;;6139603;23;20372;-91
2023/06/18 03:30:13;;;;;;;6.20;5.60;;;;;;;;;;6140436;23;20482;-91
2023/06/18 03:32:39;;;;;;;7.20;6.10;;;;;;;;;;6144394;23;20388;-93
2023/06/18 03:35:06;;;;;;;8.20;6.37;;;;;;;;;;6145649;23;20416;-91
2023/06/18 03:37:32;;;;;;;7.60;6.07;;;;;;;;;;6140866;23;20383;-91
2023/06/18 03:39:58;;;;;;;7.47;6.67;;;;;;;;;;6140731;23;20407;-91
2023/06/18 03:42:24;;;;;;;8.47;5.77;;;;;;;;;;6164754;23;20907;-91
2023/06/18 03:44:50;;;;;;;7.00;6.30;;;;;;;;;;6141593;23;20431;-91
2023/06/18 03:47:17;;;;;;;8.80;6.80;;;;;;;;;;6141165;23;20391;-92
2023/06/18 03:49:43;;;;;;;6.63;5.47;;;;;;;;;;6140208;23;20447;-92
2023/06/18 03:52:09;;;;;;;7.50;6.13;;;;;;;;;;6143805;23;20391;-92
2023/06/18 03:54:35;;;;;;;9.60;6.80;;;;;;;;;;6139062;23;20360;-91
2023/06/18 03:57:02;;;;;;;6.63;6.00;;;;;;;;;;6141513;23;20384;-92
2023/06/18 03:59:28;;;;;;;8.50;5.97;;;;;;;;;;6140265;23;20407;-91
2023/06/18 04:01:54;;;;;;;7.90;7.10;;;;;;;;;;6139067;23;20427;-91
2023/06/18 04:04:20;;;;;;;7.20;6.10;;;;;;;;;;6141414;23;20403;-93
2023/06/18 04:06:46;;;;;;;8.60;7.07;;;;;;;;;;6147082;23;20388;-93
2023/06/18 04:09:12;;;;;;;6.67;5.90;;;;;;;;;;6144060;23;20411;-94
2023/06/18 04:11:39;;;;;;;9.23;6.90;;;;;;;;;;6143701;23;20427;-93
2023/06/18 04:14:05;;;;;;;6.13;5.50;;;;;;;;;;6142085;23;20376;-93
2023/06/18 04:16:31;;;;;;;7.70;6.23;;;;;;;;;;6143455;23;20487;-94
2023/06/18 04:18:57;;;;;;;7.20;6.00;;;;;;;;;;6141911;23;20763;-93
2023/06/18 04:21:23;;;;;;;8.47;5.70;;;;;;;;;;6146459;23;20431;-93
2023/06/18 04:23:49;;;;;;;6.37;5.77;;;;;;;;;;6144127;23;20390;-93
2023/06/18 04:26:15;;;;;;;7.80;6.37;;;;;;;;;;6143521;23;20711;-92
2023/06/18 04:28:41;;;;;;;7.93;7.13;;;;;;;;;;6143534;23;20372;-94
2023/06/18 04:31:07;;;;;;;8.77;6.50;;;;;;;;;;6143604;23;20380;-93
2023/06/18 04:33:33;;;;;;;10.87;6.00;;;;;;;;;;6144078;23;20384;-91
2023/06/18 04:35:59;;;;;;;7.50;6.63;;;;;;;;;;6143232;23;20384;-91
2023/06/18 04:38:27;;;;;;;7.77;6.90;;;;;;;;;;6142760;23;20898;-91
2023/06/18 04:40:54;;;;;;;7.87;7.07;;;;;;;;;;6141377;23;20424;-91
2023/06/18 04:43:20;;;;;;;7.40;6.70;;;;;;;;;;6142240;23;20384;-92
2023/06/18 04:45:46;;;;;;;8.07;6.20;;;;;;;;;;6143409;23;20387;-91
2023/06/18 04:48:14;;;;;;;8.60;6.30;;;;;;;;;;6141855;23;20415;-91
2023/06/18 04:50:40;;;;;;;8.30;6.77;;;;;;;;;;6142559;23;20380;-92
2023/06/18 04:53:05;;;;;;;8.40;7.50;;;;;;;;;;6142643;23;20380;-92
2023/06/18 04:55:31;;;;;;;8.27;7.23;;;;;;;;;;6144914;23;20466;-91
2023/06/18 04:57:58;;;;;;;8.80;6.73;;;;;;;;;;6143770;23;20383;-90
2023/06/18 05:00:24;;;;;;;7.40;6.70;;;;;;;;;;6142894;23;20479;-92
2023/06/18 05:02:50;;;;;;;8.40;7.20;;;;;;;;;;6143152;23;20660;-88
2023/06/18 05:05:16;;;;;;;9.20;8.30;;;;;;;;;;6141576;23;20404;-92
2023/06/18 05:07:42;;;;;;;9.73;7.93;;;;;;;;;;6142847;23;20407;-90
2023/06/18 05:10:08;;;;;;;7.10;6.40;;;;;;;;;;6142275;23;20434;-92
2023/06/18 05:12:35;;;;;;;10.80;7.00;;;;;;;;;;6141998;23;20380;-90
2023/06/18 05:15:01;;;;;;;8.60;7.40;;;;;;;;;;6143043;23;20410;-90
2023/06/18 05:17:27;;;;;;;8.63;7.33;;;;;;;;;;6146649;23;20519;-90
2023/06/18 05:19:53;;;;;;;10.00;7.70;;;;;;;;;;6142018;23;20755;-89
2023/06/18 05:22:19;;;;;;;8.83;6.80;;;;;;;;;;6145077;23;20475;-91
2023/06/18 05:24:45;;;;;;;7.50;6.63;;;;;;;;;;6143579;23;20872;-90
2023/06/18 05:27:12;;;;;;;10.17;6.80;;;;;;;;;;6147311;23;20360;-92
2023/06/18 05:29:38;;;;;;;9.50;8.13;;;;;;;;;;6167945;23;20364;-91
2023/06/18 05:32:04;;;;;;;8.37;6.73;;;;;;;;;;6144660;23;20407;-92
2023/06/18 05:34:30;;;;;;;8.97;7.03;;;;;;;;;;6141607;23;20377;-91
2023/06/18 05:36:56;;;;;;;12.10;6.83;;;;;;;;;;6140941;23;20380;-91
2023/06/18 05:39:22;;;;;;;8.40;7.23;;;;;;;;;;6142432;23;20384;-92
2023/06/18 05:41:50;;;;;;;8.13;7.33;;;;;;;;;;6144027;23;20435;-92
2023/06/18 05:44:16;;;;;;;7.87;7.03;;;;;;;;;;6141900;23;20391;-91
2023/06/18 05:46:42;;;;;;;9.20;7.57;;;;;;;;;;6143048;23;20380;-91
2023/06/18 05:49:09;;;;;;;8.37;7.00;;;;;;;;;;6141314;23;20408;-91
2023/06/18 05:51:35;;;;;;;8.50;7.60;;;;;;;;;;6142444;23;20384;-93
2023/06/18 05:54:02;;;;;;;11.73;7.80;;;;;;;;;;6140590;23;20445;-91
2023/06/18 05:56:28;;;;;;;7.77;7.00;;;;;;;;;;6142606;23;20384;-92
2023/06/18 05:58:54;;;;;;;8.83;8.03;;;;;;;;;;6166400;23;20388;-92
2023/06/18 06:01:20;;;;;;;10.37;8.23;;;;;;;;;;6144336;23;20603;-92
2023/06/18 06:03:46;;;;;;;9.10;7.70;;;;;;;;;;6141960;23;20497;-91
2023/06/18 06:06:12;;;;;;;10.73;8.63;;;;;;;;;;6143481;23;20380;-91
2023/06/18 06:08:38;;;;;;;7.97;7.27;;;;;;;;;;6142231;23;20399;-92
2023/06/18 06:11:04;;;;;;;9.63;8.37;;;;;;;;;;6145690;23;20376;-92
2023/06/18 06:13:30;;;;;;;8.50;7.40;;;;;;;;;;6143918;23;20400;-92
2023/06/18 06:15:56;;;;;;;9.20;7.93;;;;;;;;;;6143715;23;20387;-91
2023/06/18 06:18:22;;;;;;;8.33;7.43;;;;;;;;;;6140752;23;20387;-91
2023/06/18 06:20:48;;;;;;;10.47;8.50;;;;;;;;;;6140167;23;20424;-91
2023/06/18 06:23:14;;;;;;;9.20;8.33;;;;;;;;;;6138622;23;20687;-92
2023/06/18 06:25:40;;;;;;;13.03;9.03;;;;;;;;;;6139694;23;20388;-92
2023/06/18 06:28:06;;;;;;;13.33;7.70;;;;;;;;;;6140150;23;20411;-91
2023/06/18 06:30:32;;;;;;;8.43;7.63;;;;;;;;;;6168615;23;20360;-92
2023/06/18 06:32:58;;;;;;;9.23;8.30;;;;;;;;;;6168878;23;20360;-91
2023/06/18 06:35:24;;;;;;;11.10;9.70;;;;;;;;;;6145666;23;20380;-91
2023/06/18 06:37:50;;;;;;;8.70;7.63;;;;;;;;;;6142257;23;20707;-92
2023/06/18 06:40:16;;;;;;;10.03;8.57;;;;;;;;;;6140940;23;20403;-90
2023/06/18 06:42:42;;;;;;;9.63;8.27;;;;;;;;;;6144278;23;20420;-92
2023/06/18 06:45:09;;;;;;;9.10;8.20;;;;;;;;;;6145482;23;20380;-91
2023/06/18 06:47:35;;;;;;;9.77;8.23;;;;;;;;;;6145180;23;20777;-91
2023/06/18 06:50:01;;;;;;;8.97;7.90;;;;;;;;;;6145126;23;20719;-91
2023/06/18 06:52:27;;;;;;;9.47;7.97;;;;;;;;;;6143941;23;20419;-92
2023/06/18 06:54:53;;;;;;;13.50;8.00;;;;;;;;;;6144386;23;20380;-91
2023/06/18 06:57:20;;;;;;;9.70;8.80;;;;;;;;;;6144273;23;20915;-91
2023/06/18 06:59:46;;;;;;;10.33;9.10;;;;;;;;;;6141446;23;20420;-91
2023/06/18 07:02:12;;;;;;;9.03;8.10;;;;;;;;;;6142581;23;20432;-90
2023/06/18 07:04:39;;;;;;;9.93;8.90;;;;;;;;;;6142809;23;20372;-93
2023/06/18 07:07:05;;;;;;;9.17;8.17;;;;;;;;;;6145247;23;20385;-91
2023/06/18 07:09:31;;;;;;;9.40;8.40;;;;;;;;;;6143462;23;20419;-91
2023/06/18 07:11:57;;;;;;;9.63;8.70;;;;;;;;;;6142869;23;20388;-91
2023/06/18 07:14:23;;;;;;;11.43;8.73;;;;;;;;;;6142772;23;20384;-93
2023/06/18 07:16:49;;;;;;;8.37;7.50;;;;;;;;;;6143072;23;20387;-91
2023/06/18 07:19:15;;;;;;;9.70;8.70;;;;;;;;;;6142492;23;20442;-92
2023/06/18 07:21:41;;;;;;;9.77;8.77;;;;;;;;;;6142325;23;20428;-91
2023/06/18 07:24:07;;;;;;;11.20;8.93;;;;;;;;;;6141668;23;20380;-92
2023/06/18 07:26:33;;;;;;;9.13;8.23;;;;;;;;;;6144583;23;20376;-91
2023/06/18 07:28:59;;;;;;;10.67;8.33;;;;;;;;;;6142939;23;20462;-91
2023/06/18 07:31:25;;;;;;;8.90;8.07;;;;;;;;;;6143208;23;20384;-92
2023/06/18 07:33:51;;;;;;;12.37;8.07;;;;;;;;;;6143023;23;20471;-91
2023/06/18 07:36:17;;;;;;;13.63;7.70;;;;;;;;;;6145667;23;20391;-90
2023/06/18 07:38:43;;;;;;;8.50;7.30;;;;;;;;;;6148793;23;20443;-90
2023/06/18 07:41:09;;;;;;;7.90;7.20;;;;;;;;;;6147707;23;20465;-90
2023/06/18 07:43:35;;;;;;;8.00;7.20;;;;;;;;;;6141291;23;20407;-90
2023/06/18 07:46:01;;;;;;;9.10;7.63;;;;;;;;;;6145350;23;20748;-91
2023/06/18 07:48:27;;;;;;;7.50;6.77;;;;;;;;;;6142162;23;20386;-91
2023/06/18 07:50:53;;;;;;;8.70;7.47;;;;;;;;;;6143288;23;20391;-90
2023/06/18 07:53:19;;;;;;;8.10;7.30;;;;;;;;;;6140766;23;20380;-88
2023/06/18 07:55:45;;;;;;;8.60;7.80;;;;;;;;;;6138268;23;20375;-90
2023/06/18 07:58:11;;;;;;;9.27;8.23;;;;;;;;;;6140481;23;20396;-90
2023/06/18 08:00:37;;;;;;;8.50;7.63;;;;;;;;;;6162654;23;20424;-89
2023/06/18 08:03:03;;;;;;;9.90;6.60;;;;;;;;;;6140108;23;20530;-90
2023/06/18 08:05:29;;;;;;;8.77;7.97;;;;;;;;;;6140259;23;20400;-90
2023/06/18 08:07:55;;;;;;;8.83;7.93;;;;;;;;;;6141162;23;20387;-90
2023/06/18 08:10:21;;;;;;;9.43;8.40;;;;;;;;;;6140788;23;20391;-90
2023/06/18 08:12:47;;;;;;;8.27;7.47;;;;;;;;;;6142137;23;20380;-90
2023/06/18 08:15:13;;;;;;;12.33;8.27;;;;;;;;;;6141023;23;20391;-90
2023/06/18 08:17:40;;;;;;;8.40;7.50;;;;;;;;;;6142128;23;20380;-90
2023/06/18 08:20:06;;;;;;;8.80;7.90;;;;;;;;;;6141016;23;20411;-89
2023/06/18 08:22:32;;;;;;;8.30;7.57;;;;;;;;;;6143504;23;20897;-93
2023/06/18 08:24:58;;;;;;;8.10;7.17;;;;;;;;;;6144263;23;20428;-92
2023/06/18 08:27:24;;;;;;;7.90;7.10;;;;;;;;;;6142535;23;20384;-90
2023/06/18 08:29:50;;;;;;;9.27;7.37;;;;;;;;;;6141954;23;20457;-90
2023/06/18 08:32:16;;;;;;;9.40;7.70;;;;;;;;;;6140572;23;20403;-91
2023/06/18 08:34:42;;;;;;;8.47;7.57;;;;;;;;;;6141088;23;20388;-91
2023/06/18 08:37:12;;;;;;;7.97;6.97;;;;;;;;;;6144793;23;20384;-91
2023/06/18 08:39:38;;;;;;;8.23;7.23;;;;;;;;;;6143489;23;20384;-91
2023/06/18 08:42:04;;;;;;;9.13;8.17;;;;;;;;;;6172409;23;20427;-91
2023/06/18 08:44:33;;;;;;;7.80;7.10;;;;;;;;;;6145049;23;20395;-92
2023/06/18 08:47:03;;;;;;;7.87;7.07;;;;;;;;;;6148867;23;20475;-92
2023/06/18 08:49:29;;;;;;;9.40;6.70;;;;;;;;;;6147341;23;20387;-92
2023/06/18 08:51:55;;;;;;;8.50;7.70;;;;;;;;;;6147087;23;20762;-92
2023/06/18 08:54:21;;;;;;;8.47;7.73;;;;;;;;;;6148178;23;20400;-91
2023/06/18 08:56:48;;;;;;;8.47;7.57;;;;;;;;;;6149503;23;20380;-91
2023/06/18 08:59:14;;;;;;;7.33;6.57;;;;;;;;;;6147720;23;20396;-90
2023/06/18 09:01:40;;;;;;;7.90;7.20;;;;;;;;;;6169469;23;20916;-92
2023/06/18 09:04:06;;;;;;;8.57;7.57;;;;;;;;;;6144224;23;20446;-91
2023/06/18 09:06:32;;;;;;;9.23;7.27;;;;;;;;;;6146413;23;20391;-96
2023/06/18 09:09:01;;;;;;;7.70;7.00;;;;;;;;;;6146058;23;20452;-94
2023/06/18 09:11:30;;;;;;;8.13;7.30;;;;;;;;;;6145726;23;20395;-91
2023/06/18 09:13:56;;;;;;;8.20;7.40;;;;;;;;;;6144070;23;20412;-91
2023/06/18 09:16:23;;;;;;;10.43;7.87;;;;;;;;;;6171890;23;20368;-91
2023/06/18 09:18:49;;;;;;;6.87;6.20;;;;;;;;;;6145615;23;20372;-91
2023/06/18 09:21:50;;;;;;;9.07;6.90;;;;;;;;;;6145779;23;20431;-91
2023/06/18 09:24:20;;;;;;;6.97;6.10;;;;;;;;;;6020259;23;20396;-92
2023/06/18 09:26:47;;;;;;;8.10;7.30;;;;;;;;;;6149664;23;20390;-91
2023/06/18 09:29:13;;;;;;;7.30;6.53;;;;;;;;;;6144596;23;20388;-91
2023/06/18 09:31:44;;;;;;;6.63;6.03;;;;;;;;;;6143172;23;20496;-89
2023/06/18 09:34:16;;;;;;;7.50;6.80;;;;;;;;;;6141579;23;20400;-90
2023/06/18 09:36:43;;;;;;;6.70;6.03;;;;;;;;;;6168056;23;20875;-91
2023/06/18 09:39:16;;;;;;;7.77;6.97;;;;;;;;;;6143606;23;20856;-90
2023/06/18 09:41:43;;;;;;;7.20;6.50;;;;;;;;;;6141113;23;20427;-90
2023/06/18 09:44:09;;;;;;;7.83;6.70;;;;;;;;;;6142008;23;20391;-89
2023/06/18 09:46:35;;;;;;;8.47;6.97;;;;;;;;;;6169561;23;20371;-91
2023/06/18 09:49:01;;;;;;;7.77;7.00;;;;;;;;;;6143971;23;20380;-90
2023/06/18 09:51:27;;;;;;;7.40;6.70;;;;;;;;;;6144996;23;20445;-93
2023/06/18 09:53:57;;;;;;;7.87;6.30;;;;;;;;;;6144135;23;20852;-93
2023/06/18 09:56:23;;;;;;;7.90;7.10;;;;;;;;;;6148110;23;20369;-94
2023/06/18 09:58:50;;;;;;;8.80;6.77;;;;;;;;;;6146446;23;20407;-93
2023/06/18 10:01:16;;;;;;;7.67;6.87;;;;;;;;;;6147951;23;20435;-93
2023/06/18 10:03:43;;;;;;;6.90;6.20;;;;;;;;;;6143695;23;20380;-90
2023/06/18 10:06:09;;;;;;;7.30;6.60;;;;;;;;;;6143335;23;20407;-90
2023/06/18 10:08:35;;;;;;;7.37;6.00;;;;;;;;;;6168212;23;20403;-89
2023/06/18 10:11:01;;;;;;;7.13;6.53;;;;;;;;;;6143461;23;20392;-91
2023/06/18 10:13:27;;;;;;;7.13;6.47;;;;;;;;;;6143150;23;20460;-90
2023/06/18 10:15:53;;;;;;;8.13;6.83;;;;;;;;;;6141535;23;20428;-89
2023/06/18 10:18:22;;;;;;;7.10;6.50;;;;;;;;;;6142429;23;20395;-90
2023/06/18 10:20:49;;;;;;;11.90;7.67;;;;;;;;;;6144630;23;20384;-90
2023/06/18 10:23:15;;;;;;;8.10;6.53;;;;;;;;;;6144302;23;20423;-91
2023/06/18 10:25:42;;;;;;;7.93;7.13;;;;;;;;;;6144779;23;20394;-92
2023/06/18 10:28:08;;;;;;;8.20;6.07;;;;;;;;;;6144669;23;20376;-93
2023/06/18 10:30:36;;;;;;;6.83;6.13;;;;;;;;;;6145517;23;20390;-91
2023/06/18 10:33:02;;;;;;;8.00;6.37;;;;;;;;;;6144536;23;20399;-91
2023/06/18 10:35:28;;;;;;;8.40;7.60;;;;;;;;;;6164464;23;20373;-91
2023/06/18 10:37:54;;;;;;;7.97;7.10;;;;;;;;;;6142304;23;20388;-90
2023/06/18 10:40:20;;;;;;;7.40;6.60;;;;;;;;;;6139270;23;20402;-90
2023/06/18 10:42:49;;;;;;;7.40;6.70;;;;;;;;;;6166112;23;20412;-91
2023/06/18 10:45:16;;;;;;;10.90;7.20;;;;;;;;;;6167579;23;20395;-92
2023/06/18 10:47:42;;;;;;;6.77;6.07;;;;;;;;;;6144146;23;20799;-90
2023/06/18 10:50:08;;;;;;;7.33;6.63;;;;;;;;;;6144002;23;20367;-92
2023/06/18 10:52:35;;;;;;;7.03;6.37;;;;;;;;;;6172706;23;20364;-91
2023/06/18 10:55:20;;;;;;;12.27;6.80;;;;;;;;;;6169657;23;20376;-90
2023/06/18 10:57:50;;;;;;;8.90;6.53;;;;;;;;;;6168073;23;20463;-90
2023/06/18 11:00:17;;;;;;;6.97;5.70;;;;;;;;;;6142380;23;20431;-93
2023/06/18 11:02:44;;;;;;;6.97;6.33;;;;;;;;;;6142336;23;20451;-89
2023/06/18 11:05:39;;;;;;;7.87;6.10;;;;;;;;;;6142797;23;20396;-89
2023/06/18 11:08:06;;;;;;;7.90;6.27;;;;;;;;;;6166914;23;20431;-90
2023/06/18 11:10:36;;;;;;;7.13;6.43;;;;;;;;;;6142513;23;20383;-91
2023/06/18 11:13:05;;;;;;;7.20;6.10;;;;;;;;;;6143387;23;20384;-90
2023/06/18 11:15:31;;;;;;;7.50;5.50;;;;;;;;;;6145227;23;20383;-90
2023/06/18 11:18:01;;;;;;;6.43;5.60;;;;;;;;;;6142936;23;20372;-91
2023/06/18 11:20:27;;;;;;;10.50;6.43;;;;;;;;;;6143785;23;20376;-89
2023/06/18 11:22:56;;;;;;;6.00;5.47;;;;;;;;;;6141715;23;20428;-90
2023/06/18 11:25:23;;;;;;;5.87;5.33;;;;;;;;;;6144972;23;20379;-91
2023/06/18 11:27:49;;;;;;;6.80;6.10;;;;;;;;;;6142812;23;20955;-91
2023/06/18 11:30:15;;;;;;;6.77;6.00;;;;;;;;;;6144174;23;20443;-90
2023/06/18 11:32:41;;;;;;;6.17;5.43;;;;;;;;;;6144471;23;20392;-90
2023/06/18 11:35:08;;;;;;;6.70;6.10;;;;;;;;;;6169679;23;20451;-91
2023/06/18 11:37:34;;;;;;;6.50;5.50;;;;;;;;;;6144987;23;20692;-93
2023/06/18 11:40:01;;;;;;;7.67;6.83;;;;;;;;;;6146922;23;20376;-90
2023/06/18 11:42:27;;;;;;;5.90;5.30;;;;;;;;;;6145198;23;20438;-90
2023/06/18 11:44:54;;;;;;;6.70;5.67;;;;;;;;;;6145558;23;20382;-90
2023/06/18 11:47:20;;;;;;;6.40;5.47;;;;;;;;;;6145326;23;20380;-92
2023/06/18 11:49:48;;;;;;;8.20;5.90;;;;;;;;;;6142825;23;20384;-90
2023/06/18 11:52:17;;;;;;;6.87;6.17;;;;;;;;;;6164800;23;20388;-88
2023/06/18 11:54:46;;;;;;;7.03;6.43;;;;;;;;;;6165447;23;20384;-90
2023/06/18 11:57:12;;;;;;;6.17;5.67;;;;;;;;;;6190380;23;20407;-90
2023/06/18 11:59:41;;;;;;;5.90;5.40;;;;;;;;;;6166526;23;20439;-90
2023/06/18 12:02:11;;;;;;;7.00;6.00;;;;;;;;;;6170707;23;20422;-90
2023/06/18 12:04:37;;;;;;;6.97;6.20;;;;;;;;;;6171272;23;20391;-90
2023/06/18 12:07:03;;;;;;;6.40;5.80;;;;;;;;;;6171310;23;20384;-91
2023/06/18 12:09:33;;;;;;;7.57;6.90;;;;;;;;;;6172071;23;21001;-90
2023/06/18 12:11:59;;;;;;;6.37;5.87;;;;;;;;;;6172364;23;20391;-91
2023/06/18 12:14:32;;;;;;;6.07;5.57;;;;;;;;;;6196194;23;20376;-91
2023/06/18 12:16:59;;;;;;;6.67;5.97;;;;;;;;;;6197228;23;20392;-91
2023/06/18 12:19:26;;;;;;;6.60;6.00;;;;;;;;;;6171836;23;20384;-90
2023/06/18 12:21:52;;;;;;;7.43;6.70;;;;;;;;;;6173259;23;20454;-92
2023/06/18 12:24:18;;;;;;;7.20;6.50;;;;;;;;;;6148863;23;20428;-91
2023/06/18 12:26:44;;;;;;;7.50;6.53;;;;;;;;;;6151707;23;20490;-92
2023/06/18 12:29:11;;;;;;;7.10;6.40;;;;;;;;;;6150469;23;20391;-93
2023/06/18 12:31:38;;;;;;;7.37;6.67;;;;;;;;;;6151535;23;20951;-92
2023/06/18 12:34:04;;;;;;;7.10;6.60;;;;;;;;;;6150151;23;20383;-91
2023/06/18 12:36:30;;;;;;;6.97;6.47;;;;;;;;;;6150612;23;20376;-92
2023/06/18 12:38:56;;;;;;;7.47;5.87;;;;;;;;;;6150829;23;20384;-92
2023/06/18 12:41:22;;;;;;;6.80;6.20;;;;;;;;;;6149826;23;20436;-91
2023/06/18 12:43:49;;;;;;;7.40;6.63;;;;;;;;;;6149134;23;20798;-90
2023/06/18 12:46:26;;;;;;;7.07;6.37;;;;;;;;;;6083200;23;20442;-90
2023/06/18 12:48:54;;;;;;;6.80;6.10;;;;;;;;;;6082614;23;20382;-91
2023/06/18 12:51:23;;;;;;;5.83;5.33;;;;;;;;;;6083334;23;20411;-93
2023/06/18 12:53:51;;;;;;;7.33;6.63;;;;;;;;;;6086539;23;20383;-90
2023/06/18 12:56:19;;;;;;;6.43;5.93;;;;;;;;;;6084627;23;20394;-90
2023/06/18 12:58:46;;;;;;;7.30;6.40;;;;;;;;;;6088586;23;20394;-93
2023/06/18 13:01:12;;;;;;;6.27;5.73;;;;;;;;;;6089165;23;20430;-94
2023/06/18 13:03:42;;;;;;;6.53;5.93;;;;;;;;;;6062991;23;20458;-93
2023/06/18 13:06:11;;;;;;;7.00;6.30;;;;;;;;;;6110305;23;20386;-90
2023/06/18 13:08:37;;;;;;;6.27;5.70;;;;;;;;;;6086162;23;20430;-90
2023/06/18 13:11:04;;;;;;;6.90;6.30;;;;;;;;;;6053191;23;20404;-91
2023/06/18 13:13:30;;;;;;;6.20;5.70;;;;;;;;;;6029380;23;20400;-90
2023/06/18 13:15:57;;;;;;;7.37;6.60;;;;;;;;;;6030705;23;20373;-91
2023/06/18 13:18:24;;;;;;;7.13;6.40;;;;;;;;;;6092066;23;20793;-92
2023/06/18 13:20:50;;;;;;;6.50;5.90;;;;;;;;;;6093263;23;20982;-91
2023/06/18 13:23:16;;;;;;;7.17;6.43;;;;;;;;;;6091484;23;20433;-90
2023/06/18 13:25:42;;;;;;;7.27;6.57;;;;;;;;;;6094007;23;20473;-91
2023/06/18 13:28:10;;;;;;;6.80;6.30;;;;;;;;;;6094781;23;20417;-91
2023/06/18 13:30:36;;;;;;;6.77;6.27;;;;;;;;;;6093915;23;20382;-90
2023/06/18 13:33:02;;;;;;;7.27;6.67;;;;;;;;;;6092115;23;20376;-92
2023/06/18 13:35:30;;;;;;;6.90;6.30;;;;;;;;;;6092472;23;20393;-92
2023/06/18 13:37:56;;;;;;;6.10;5.50;;;;;;;;;;6091498;23;20441;-91
2023/06/18 13:40:22;;;;;;;7.13;6.53;;;;;;;;;;6087815;23;20366;-93
2023/06/18 13:42:50;;;;;;;6.63;6.03;;;;;;;;;;6110044;23;20514;-91
2023/06/18 13:45:16;;;;;;;5.80;5.30;;;;;;;;;;6086730;23;20390;-91
2023/06/18 13:47:43;;;;;;;6.20;5.70;;;;;;;;;;6102605;23;20376;-92
2023/06/18 13:50:09;;;;;;;6.53;5.93;;;;;;;;;;6146686;23;20391;-93
2023/06/18 13:52:35;;;;;;;6.70;6.10;;;;;;;;;;6170403;23;20364;-91
2023/06/18 13:55:02;;;;;;;6.80;6.20;;;;;;;;;;6148207;23;20356;-93
2023/06/18 13:57:28;;;;;;;6.17;5.67;;;;;;;;;;6148809;23;20709;-93
2023/06/18 13:59:54;;;;;;;6.93;6.33;;;;;;;;;;6145158;23;20460;-90
2023/06/18 14:02:20;;;;;;;7.00;6.40;;;;;;;;;;6148903;23;20431;-91
2023/06/18 14:04:46;;;;;;;5.90;5.40;;;;;;;;;;6146720;23;20408;-91
2023/06/18 14:07:12;;;;;;;6.67;6.07;;;;;;;;;;6149404;23;20384;-95
2023/06/18 14:09:40;;;;;;;6.53;5.93;;;;;;;;;;6147888;23;20380;-91
2023/06/18 14:12:06;;;;;;;5.93;5.30;;;;;;;;;;6147128;23;20384;-94
2023/06/18 14:14:33;;;;;;;7.03;5.80;;;;;;;;;;6148713;23;20447;-93
2023/06/18 14:17:09;;;;;;;6.87;5.83;;;;;;;;;;6148742;23;20431;-92
2023/06/18 14:19:35;;;;;;;6.90;6.30;;;;;;;;;;6151473;23;20368;-92
2023/06/18 14:22:01;;;;;;;6.60;6.00;;;;;;;;;;6146416;23;20446;-91
2023/06/18 14:24:27;;;;;;;5.93;5.33;;;;;;;;;;6147936;23;20394;-92
2023/06/18 14:26:53;;;;;;;6.53;5.93;;;;;;;;;;6173047;23;20360;-93
2023/06/18 14:29:20;;;;;;;6.40;5.80;;;;;;;;;;6148816;23;20463;-93
2023/06/18 14:31:46;;;;;;;7.47;6.30;;;;;;;;;;6147351;23;20364;-92
2023/06/18 14:34:14;;;;;;;5.70;5.20;;;;;;;;;;6145680;23;20468;-93
2023/06/18 14:36:41;;;;;;;6.57;5.67;;;;;;;;;;6146744;23;20156;-91
2023/06/18 14:39:08;;;;;;;6.90;6.30;;;;;;;;;;6148919;23;20384;-92
2023/06/18 14:41:34;;;;;;;7.20;5.30;;;;;;;;;;6146005;23;20427;-91